sensor_id;sensor_type;location;lat;lon;timestamp;temperature;humidity
12119;DHT22;6123;48.864;9.200;2023-05-23T00:00:40;16.90;99.90
12119;DHT22;6123;48.864;9.200;2023-05-23T00:03:06;16.90;99.90
12119;DHT22;6123;48.864;9.200;2023-05-23T00:05:31;16.80;99.90
12119;DHT22;6123;48.864;9.200;2023-05-23T00:07:57;16.70;99.90
12119;DHT22;6123;48.864;9.200;2023-05-23T00:10:22;16.70;99.90
12119;DHT22;6123;48.864;9.200;2023-05-23T00:12:48;16.70;99.90
12119;DHT22;6123;48.864;9.200;2023-05-23T00:15:13;16.70;99.90
12119;DHT22;6123;48.864;9.200;2023-05-23T00:17:39;16.70;99.90
12119;DHT22;6123;48.864;9.200;2023-05-23T00:20:08;16.60;99.90
12119;DHT22;6123;48.864;9.200;2023-05-23T00:22:37;16.70;99.90
12119;DHT22;6123;48.864;9.200;2023-05-23T00:25:08;16.70;99.90
12119;DHT22;6123;48.864;9.200;2023-05-23T00:27:34;16.70;99.90
12119;DHT22;6123;48.864;9.200;2023-05-23T00:30:00;16.60;99.90
12119;DHT22;6123;48.864;9.200;2023-05-23T00:32:25;16.60;99.90
12119;DHT22;6123;48.864;9.200;2023-05-23T00:34:51;16.60;99.90
12119;DHT22;6123;48.864;9.200;2023-05-23T00:37:18;16.60;99.90
12119;DHT22;6123;48.864;9.200;2023-05-23T00:39:44;16.60;99.90
12119;DHT22;6123;48.864;9.200;2023-05-23T00:42:10;16.50;99.90
12119;DHT22;6123;48.864;9.200;2023-05-23T00:44:36;16.50;99.90
12119;DHT22;6123;48.864;9.200;2023-05-23T00:47:01;16.50;99.90
12119;DHT22;6123;48.864;9.200;2023-05-23T00:49:27;16.50;99.90
12119;DHT22;6123;48.864;9.200;2023-05-23T00:51:52;16.50;99.90
12119;DHT22;6123;48.864;9.200;2023-05-23T00:54:27;16.50;99.90
12119;DHT22;6123;48.864;9.200;2023-05-23T00:56:53;16.50;99.90
12119;DHT22;6123;48.864;9.200;2023-05-23T00:59:20;16.50;99.90
12119;DHT22;6123;48.864;9.200;2023-05-23T01:01:48;16.40;99.90
12119;DHT22;6123;48.864;9.200;2023-05-23T01:04:14;16.40;99.90
12119;DHT22;6123;48.864;9.200;2023-05-23T01:06:41;16.40;99.90
12119;DHT22;6123;48.864;9.200;2023-05-23T01:09:12;16.30;99.90
12119;DHT22;6123;48.864;9.200;2023-05-23T01:11:54;16.30;99.90
12119;DHT22;6123;48.864;9.200;2023-05-23T01:14:42;16.30;99.90
12119;DHT22;6123;48.864;9.200;2023-05-23T01:20:21;16.40;99.90
12119;DHT22;6123;48.864;9.200;2023-05-23T01:28:28;16.40;99.90
12119;DHT22;6123;48.864;9.200;2023-05-23T01:30:57;16.30;99.90
12119;DHT22;6123;48.864;9.200;2023-05-23T01:33:24;16.40;99.90
12119;DHT22;6123;48.864;9.200;2023-05-23T01:35:50;16.40;99.90
12119;DHT22;6123;48.864;9.200;2023-05-23T01:38:16;16.40;99.90
12119;DHT22;6123;48.864;9.200;2023-05-23T01:40:42;16.40;99.90
12119;DHT22;6123;48.864;9.200;2023-05-23T01:43:08;16.50;99.90
12119;DHT22;6123;48.864;9.200;2023-05-23T01:45:34;16.50;99.90
12119;DHT22;6123;48.864;9.200;2023-05-23T01:48:00;16.50;99.90
12119;DHT22;6123;48.864;9.200;2023-05-23T01:50:26;16.50;99.90
12119;DHT22;6123;48.864;9.200;2023-05-23T01:52:52;16.50;99.90
12119;DHT22;6123;48.864;9.200;2023-05-23T01:55:19;16.60;99.90
12119;DHT22;6123;48.864;9.200;2023-05-23T01:57:49;16.60;99.90
12119;DHT22;6123;48.864;9.200;2023-05-23T02:00:16;16.60;99.90
12119;DHT22;6123;48.864;9.200;2023-05-23T02:02:41;16.60;99.90
12119;DHT22;6123;48.864;9.200;2023-05-23T02:05:08;16.50;99.90
12119;DHT22;6123;48.864;9.200;2023-05-23T02:07:34;16.60;99.90
12119;DHT22;6123;48.864;9.200;2023-05-23T02:10:00;16.50;99.90
12119;DHT22;6123;48.864;9.200;2023-05-23T02:12:25;16.50;99.90
12119;DHT22;6123;48.864;9.200;2023-05-23T02:14:52;16.50;99.90
12119;DHT22;6123;48.864;9.200;2023-05-23T02:17:18;16.50;99.90
12119;DHT22;6123;48.864;9.200;2023-05-23T02:19:43;16.50;99.90
12119;DHT22;6123;48.864;9.200;2023-05-23T02:22:09;16.50;99.90
12119;DHT22;6123;48.864;9.200;2023-05-23T02:24:35;16.50;99.90
12119;DHT22;6123;48.864;9.200;2023-05-23T02:27:00;16.50;99.90
12119;DHT22;6123;48.864;9.200;2023-05-23T02:29:26;16.50;99.90
12119;DHT22;6123;48.864;9.200;2023-05-23T02:31:51;16.50;99.90
12119;DHT22;6123;48.864;9.200;2023-05-23T02:34:17;16.60;99.90
12119;DHT22;6123;48.864;9.200;2023-05-23T02:36:42;16.60;99.90
12119;DHT22;6123;48.864;9.200;2023-05-23T02:39:08;16.60;99.90
12119;DHT22;6123;48.864;9.200;2023-05-23T02:41:34;16.60;99.90
12119;DHT22;6123;48.864;9.200;2023-05-23T02:44:01;16.60;99.90
12119;DHT22;6123;48.864;9.200;2023-05-23T02:46:27;16.60;99.90
12119;DHT22;6123;48.864;9.200;2023-05-23T02:48:52;16.60;99.90
12119;DHT22;6123;48.864;9.200;2023-05-23T02:51:18;16.60;99.90
12119;DHT22;6123;48.864;9.200;2023-05-23T02:53:43;16.60;99.90
12119;DHT22;6123;48.864;9.200;2023-05-23T02:56:09;16.50;99.90
12119;DHT22;6123;48.864;9.200;2023-05-23T02:58:34;16.50;99.90
12119;DHT22;6123;48.864;9.200;2023-05-23T03:01:03;16.60;99.90
12119;DHT22;6123;48.864;9.200;2023-05-23T03:03:29;16.50;99.90
12119;DHT22;6123;48.864;9.200;2023-05-23T03:05:56;16.50;99.90
12119;DHT22;6123;48.864;9.200;2023-05-23T03:08:22;16.50;99.90
12119;DHT22;6123;48.864;9.200;2023-05-23T03:10:48;16.50;99.90
12119;DHT22;6123;48.864;9.200;2023-05-23T03:13:13;16.50;99.90
12119;DHT22;6123;48.864;9.200;2023-05-23T03:15:39;16.50;99.90
12119;DHT22;6123;48.864;9.200;2023-05-23T03:18:04;16.60;99.90
12119;DHT22;6123;48.864;9.200;2023-05-23T03:20:30;16.60;99.90
12119;DHT22;6123;48.864;9.200;2023-05-23T03:22:56;16.60;99.90
12119;DHT22;6123;48.864;9.200;2023-05-23T03:25:21;16.50;99.90
12119;DHT22;6123;48.864;9.200;2023-05-23T03:27:46;16.50;99.90
12119;DHT22;6123;48.864;9.200;2023-05-23T03:30:12;16.50;99.90
12119;DHT22;6123;48.864;9.200;2023-05-23T03:32:38;16.50;99.90
12119;DHT22;6123;48.864;9.200;2023-05-23T03:35:03;16.50;99.90
12119;DHT22;6123;48.864;9.200;2023-05-23T03:37:29;16.50;99.90
12119;DHT22;6123;48.864;9.200;2023-05-23T03:39:55;16.50;99.90
12119;DHT22;6123;48.864;9.200;2023-05-23T03:42:20;16.50;99.90
12119;DHT22;6123;48.864;9.200;2023-05-23T03:44:46;16.50;99.90
12119;DHT22;6123;48.864;9.200;2023-05-23T03:47:11;16.50;99.90
12119;DHT22;6123;48.864;9.200;2023-05-23T03:49:36;16.50;99.90
12119;DHT22;6123;48.864;9.200;2023-05-23T03:52:02;16.50;99.90
12119;DHT22;6123;48.864;9.200;2023-05-23T03:54:28;16.50;99.90
12119;DHT22;6123;48.864;9.200;2023-05-23T03:56:53;16.60;99.90
12119;DHT22;6123;48.864;9.200;2023-05-23T03:59:19;16.50;99.90
12119;DHT22;6123;48.864;9.200;2023-05-23T04:01:45;16.50;99.90
12119;DHT22;6123;48.864;9.200;2023-05-23T04:04:10;16.40;99.90
12119;DHT22;6123;48.864;9.200;2023-05-23T04:06:36;16.40;99.90
12119;DHT22;6123;48.864;9.200;2023-05-23T04:09:01;16.40;99.90
12119;DHT22;6123;48.864;9.200;2023-05-23T04:11:27;16.40;99.90
12119;DHT22;6123;48.864;9.200;2023-05-23T04:13:53;16.40;99.90
12119;DHT22;6123;48.864;9.200;2023-05-23T04:16:18;16.40;99.90
12119;DHT22;6123;48.864;9.200;2023-05-23T04:18:44;16.40;99.90
12119;DHT22;6123;48.864;9.200;2023-05-23T04:21:11;16.40;99.90
12119;DHT22;6123;48.864;9.200;2023-05-23T04:23:37;16.40;99.90
12119;DHT22;6123;48.864;9.200;2023-05-23T04:26:03;16.40;99.90
12119;DHT22;6123;48.864;9.200;2023-05-23T04:28:30;16.40;99.90
12119;DHT22;6123;48.864;9.200;2023-05-23T04:30:55;16.40;99.90
12119;DHT22;6123;48.864;9.200;2023-05-23T04:33:23;16.50;99.90
12119;DHT22;6123;48.864;9.200;2023-05-23T04:35:48;16.50;99.90
12119;DHT22;6123;48.864;9.200;2023-05-23T04:38:14;16.50;99.90
12119;DHT22;6123;48.864;9.200;2023-05-23T04:40:39;16.50;99.90
12119;DHT22;6123;48.864;9.200;2023-05-23T04:43:05;16.50;99.90
12119;DHT22;6123;48.864;9.200;2023-05-23T04:45:30;16.50;99.90
12119;DHT22;6123;48.864;9.200;2023-05-23T04:47:56;16.50;99.90
12119;DHT22;6123;48.864;9.200;2023-05-23T04:50:21;16.50;99.90
12119;DHT22;6123;48.864;9.200;2023-05-23T04:52:47;16.50;99.90
12119;DHT22;6123;48.864;9.200;2023-05-23T04:55:13;16.60;99.90
12119;DHT22;6123;48.864;9.200;2023-05-23T04:57:39;16.60;99.90
12119;DHT22;6123;48.864;9.200;2023-05-23T05:00:05;16.60;99.90
12119;DHT22;6123;48.864;9.200;2023-05-23T05:02:35;16.60;99.90
12119;DHT22;6123;48.864;9.200;2023-05-23T05:05:02;16.60;99.90
12119;DHT22;6123;48.864;9.200;2023-05-23T05:07:28;16.70;99.90
12119;DHT22;6123;48.864;9.200;2023-05-23T05:09:54;16.70;99.90
12119;DHT22;6123;48.864;9.200;2023-05-23T05:12:19;16.70;99.90
12119;DHT22;6123;48.864;9.200;2023-05-23T05:14:45;16.70;99.90
12119;DHT22;6123;48.864;9.200;2023-05-23T05:17:10;16.80;99.90
12119;DHT22;6123;48.864;9.200;2023-05-23T05:19:37;16.70;99.90
12119;DHT22;6123;48.864;9.200;2023-05-23T05:22:03;16.70;99.90
12119;DHT22;6123;48.864;9.200;2023-05-23T05:24:28;16.70;99.90
12119;DHT22;6123;48.864;9.200;2023-05-23T05:26:54;16.80;99.90
12119;DHT22;6123;48.864;9.200;2023-05-23T05:29:20;16.70;99.90
12119;DHT22;6123;48.864;9.200;2023-05-23T05:31:46;16.80;99.90
12119;DHT22;6123;48.864;9.200;2023-05-23T05:34:11;16.90;99.90
12119;DHT22;6123;48.864;9.200;2023-05-23T05:36:38;16.90;99.90
12119;DHT22;6123;48.864;9.200;2023-05-23T05:39:10;16.90;99.90
12119;DHT22;6123;48.864;9.200;2023-05-23T05:41:36;16.90;99.90
12119;DHT22;6123;48.864;9.200;2023-05-23T05:44:01;16.80;99.90
12119;DHT22;6123;48.864;9.200;2023-05-23T05:46:27;16.80;99.90
12119;DHT22;6123;48.864;9.200;2023-05-23T05:48:52;16.90;99.90
12119;DHT22;6123;48.864;9.200;2023-05-23T05:51:18;17.00;99.90
12119;DHT22;6123;48.864;9.200;2023-05-23T05:53:43;17.00;99.90
12119;DHT22;6123;48.864;9.200;2023-05-23T05:56:09;17.00;99.90
12119;DHT22;6123;48.864;9.200;2023-05-23T05:58:35;17.10;99.90
12119;DHT22;6123;48.864;9.200;2023-05-23T06:01:00;17.10;99.90
12119;DHT22;6123;48.864;9.200;2023-05-23T06:03:26;17.10;99.90
12119;DHT22;6123;48.864;9.200;2023-05-23T06:05:52;17.00;99.90
12119;DHT22;6123;48.864;9.200;2023-05-23T06:08:17;16.90;99.90
12119;DHT22;6123;48.864;9.200;2023-05-23T06:10:43;17.10;99.90
12119;DHT22;6123;48.864;9.200;2023-05-23T06:13:09;17.20;99.90
12119;DHT22;6123;48.864;9.200;2023-05-23T06:15:34;17.20;99.90
12119;DHT22;6123;48.864;9.200;2023-05-23T06:18:00;17.40;99.90
12119;DHT22;6123;48.864;9.200;2023-05-23T06:20:25;17.40;99.90
12119;DHT22;6123;48.864;9.200;2023-05-23T06:22:51;17.50;99.90
12119;DHT22;6123;48.864;9.200;2023-05-23T06:25:16;17.50;99.90
12119;DHT22;6123;48.864;9.200;2023-05-23T06:27:42;17.50;99.90
12119;DHT22;6123;48.864;9.200;2023-05-23T06:30:09;17.70;99.90
12119;DHT22;6123;48.864;9.200;2023-05-23T06:32:35;17.70;99.90
12119;DHT22;6123;48.864;9.200;2023-05-23T06:35:01;17.60;99.90
12119;DHT22;6123;48.864;9.200;2023-05-23T06:37:26;18.60;99.90
12119;DHT22;6123;48.864;9.200;2023-05-23T06:39:52;17.50;99.90
12119;DHT22;6123;48.864;9.200;2023-05-23T06:42:17;17.30;99.90
12119;DHT22;6123;48.864;9.200;2023-05-23T06:44:43;17.20;99.90
12119;DHT22;6123;48.864;9.200;2023-05-23T06:47:08;17.10;99.90
12119;DHT22;6123;48.864;9.200;2023-05-23T06:49:34;17.00;99.90
12119;DHT22;6123;48.864;9.200;2023-05-23T06:51:59;17.10;99.90
12119;DHT22;6123;48.864;9.200;2023-05-23T06:54:25;17.10;99.90
12119;DHT22;6123;48.864;9.200;2023-05-23T06:56:50;17.10;99.90
12119;DHT22;6123;48.864;9.200;2023-05-23T06:59:16;17.00;99.90
12119;DHT22;6123;48.864;9.200;2023-05-23T07:01:41;16.80;99.90
12119;DHT22;6123;48.864;9.200;2023-05-23T07:04:07;16.90;99.90
12119;DHT22;6123;48.864;9.200;2023-05-23T07:06:34;16.90;99.90
12119;DHT22;6123;48.864;9.200;2023-05-23T07:09:00;16.80;99.90
12119;DHT22;6123;48.864;9.200;2023-05-23T07:11:26;16.80;99.90
12119;DHT22;6123;48.864;9.200;2023-05-23T07:13:52;16.80;99.90
12119;DHT22;6123;48.864;9.200;2023-05-23T07:16:17;16.70;99.90
12119;DHT22;6123;48.864;9.200;2023-05-23T07:18:43;16.80;99.90
12119;DHT22;6123;48.864;9.200;2023-05-23T07:21:08;16.80;99.90
12119;DHT22;6123;48.864;9.200;2023-05-23T07:23:34;16.90;99.90
12119;DHT22;6123;48.864;9.200;2023-05-23T07:26:00;16.70;99.90
12119;DHT22;6123;48.864;9.200;2023-05-23T07:28:27;16.60;99.90
12119;DHT22;6123;48.864;9.200;2023-05-23T07:30:52;16.60;99.90
12119;DHT22;6123;48.864;9.200;2023-05-23T07:33:18;16.50;99.90
12119;DHT22;6123;48.864;9.200;2023-05-23T07:35:44;16.60;99.90
12119;DHT22;6123;48.864;9.200;2023-05-23T07:38:10;16.90;99.90
12119;DHT22;6123;48.864;9.200;2023-05-23T07:40:35;16.90;99.90
12119;DHT22;6123;48.864;9.200;2023-05-23T07:43:02;16.90;99.90
12119;DHT22;6123;48.864;9.200;2023-05-23T07:45:28;16.80;99.90
12119;DHT22;6123;48.864;9.200;2023-05-23T07:47:53;17.10;99.90
12119;DHT22;6123;48.864;9.200;2023-05-23T07:50:19;17.20;99.90
12119;DHT22;6123;48.864;9.200;2023-05-23T07:52:45;17.40;99.90
12119;DHT22;6123;48.864;9.200;2023-05-23T07:55:11;17.50;99.90
12119;DHT22;6123;48.864;9.200;2023-05-23T07:57:36;17.10;99.90
12119;DHT22;6123;48.864;9.200;2023-05-23T08:00:02;17.10;99.90
12119;DHT22;6123;48.864;9.200;2023-05-23T08:02:29;17.30;99.90
12119;DHT22;6123;48.864;9.200;2023-05-23T08:04:55;17.40;99.90
12119;DHT22;6123;48.864;9.200;2023-05-23T08:07:21;17.40;99.90
12119;DHT22;6123;48.864;9.200;2023-05-23T08:09:47;17.30;99.90
12119;DHT22;6123;48.864;9.200;2023-05-23T08:12:12;17.50;99.90
12119;DHT22;6123;48.864;9.200;2023-05-23T08:14:38;17.30;99.90
12119;DHT22;6123;48.864;9.200;2023-05-23T08:17:04;17.30;99.90
12119;DHT22;6123;48.864;9.200;2023-05-23T08:19:29;16.90;99.90
12119;DHT22;6123;48.864;9.200;2023-05-23T08:21:55;17.00;99.90
12119;DHT22;6123;48.864;9.200;2023-05-23T08:24:20;17.00;99.90
12119;DHT22;6123;48.864;9.200;2023-05-23T08:26:46;17.00;99.90
12119;DHT22;6123;48.864;9.200;2023-05-23T08:29:12;17.20;99.90
12119;DHT22;6123;48.864;9.200;2023-05-23T08:31:38;17.30;99.90
12119;DHT22;6123;48.864;9.200;2023-05-23T08:34:03;17.20;99.90
12119;DHT22;6123;48.864;9.200;2023-05-23T08:36:29;17.00;99.90
12119;DHT22;6123;48.864;9.200;2023-05-23T08:38:58;16.70;99.90
12119;DHT22;6123;48.864;9.200;2023-05-23T08:41:24;17.10;99.90
12119;DHT22;6123;48.864;9.200;2023-05-23T08:43:51;17.60;99.90
12119;DHT22;6123;48.864;9.200;2023-05-23T08:46:17;17.90;99.90
12119;DHT22;6123;48.864;9.200;2023-05-23T08:48:50;17.40;99.90
12119;DHT22;6123;48.864;9.200;2023-05-23T08:51:16;17.60;99.90
12119;DHT22;6123;48.864;9.200;2023-05-23T08:53:44;17.50;99.90
12119;DHT22;6123;48.864;9.200;2023-05-23T08:56:14;17.00;99.90
12119;DHT22;6123;48.864;9.200;2023-05-23T08:58:41;17.20;99.90
12119;DHT22;6123;48.864;9.200;2023-05-23T09:01:08;17.00;99.90
12119;DHT22;6123;48.864;9.200;2023-05-23T09:03:37;17.50;99.90
12119;DHT22;6123;48.864;9.200;2023-05-23T09:06:06;17.40;99.90
12119;DHT22;6123;48.864;9.200;2023-05-23T09:08:32;18.00;99.90
12119;DHT22;6123;48.864;9.200;2023-05-23T09:10:59;18.10;99.90
12119;DHT22;6123;48.864;9.200;2023-05-23T09:13:28;17.80;99.90
12119;DHT22;6123;48.864;9.200;2023-05-23T09:18:28;17.50;99.90
12119;DHT22;6123;48.864;9.200;2023-05-23T09:20:57;17.80;99.90
12119;DHT22;6123;48.864;9.200;2023-05-23T09:23:23;17.50;99.90
12119;DHT22;6123;48.864;9.200;2023-05-23T09:25:48;17.30;99.90
12119;DHT22;6123;48.864;9.200;2023-05-23T09:28:14;17.30;99.90
12119;DHT22;6123;48.864;9.200;2023-05-23T09:30:40;17.30;99.90
12119;DHT22;6123;48.864;9.200;2023-05-23T09:33:06;17.30;99.90
12119;DHT22;6123;48.864;9.200;2023-05-23T09:35:31;17.10;99.90
12119;DHT22;6123;48.864;9.200;2023-05-23T09:37:57;17.50;99.90
12119;DHT22;6123;48.864;9.200;2023-05-23T09:40:29;17.40;99.90
12119;DHT22;6123;48.864;9.200;2023-05-23T09:43:02;17.40;99.90
12119;DHT22;6123;48.864;9.200;2023-05-23T09:45:29;17.30;99.90
12119;DHT22;6123;48.864;9.200;2023-05-23T09:47:55;17.10;99.90
12119;DHT22;6123;48.864;9.200;2023-05-23T09:50:21;17.30;99.90
12119;DHT22;6123;48.864;9.200;2023-05-23T09:52:48;17.60;99.90
12119;DHT22;6123;48.864;9.200;2023-05-23T09:55:14;17.60;99.90
12119;DHT22;6123;48.864;9.200;2023-05-23T09:57:41;17.20;99.90
12119;DHT22;6123;48.864;9.200;2023-05-23T10:00:08;17.20;99.90
12119;DHT22;6123;48.864;9.200;2023-05-23T10:02:57;17.60;99.90
12119;DHT22;6123;48.864;9.200;2023-05-23T10:05:36;17.90;99.90
12119;DHT22;6123;48.864;9.200;2023-05-23T10:08:09;17.50;99.90
12119;DHT22;6123;48.864;9.200;2023-05-23T10:13:26;18.40;99.90
12119;DHT22;6123;48.864;9.200;2023-05-23T10:15:58;18.20;99.90
12119;DHT22;6123;48.864;9.200;2023-05-23T10:18:28;18.00;99.90
12119;DHT22;6123;48.864;9.200;2023-05-23T10:20:58;18.30;99.90
12119;DHT22;6123;48.864;9.200;2023-05-23T10:23:26;18.20;99.90
12119;DHT22;6123;48.864;9.200;2023-05-23T10:25:51;18.40;99.90
12119;DHT22;6123;48.864;9.200;2023-05-23T10:28:17;18.20;99.90
12119;DHT22;6123;48.864;9.200;2023-05-23T10:30:44;18.40;99.90
12119;DHT22;6123;48.864;9.200;2023-05-23T10:33:10;18.10;99.90
12119;DHT22;6123;48.864;9.200;2023-05-23T10:36:07;18.30;99.90
12119;DHT22;6123;48.864;9.200;2023-05-23T10:38:40;18.30;99.90
12119;DHT22;6123;48.864;9.200;2023-05-23T10:41:12;18.00;99.90
12119;DHT22;6123;48.864;9.200;2023-05-23T10:44:00;18.70;99.90
12119;DHT22;6123;48.864;9.200;2023-05-23T10:46:53;18.50;99.90
12119;DHT22;6123;48.864;9.200;2023-05-23T10:49:20;18.70;99.90
12119;DHT22;6123;48.864;9.200;2023-05-23T10:51:50;18.80;99.90
12119;DHT22;6123;48.864;9.200;2023-05-23T10:54:17;19.00;99.90
12119;DHT22;6123;48.864;9.200;2023-05-23T10:56:44;18.30;99.90
12119;DHT22;6123;48.864;9.200;2023-05-23T10:59:19;18.30;99.90
12119;DHT22;6123;48.864;9.200;2023-05-23T11:01:46;18.50;99.90
12119;DHT22;6123;48.864;9.200;2023-05-23T11:04:14;18.20;99.90
12119;DHT22;6123;48.864;9.200;2023-05-23T11:06:42;18.20;99.90
12119;DHT22;6123;48.864;9.200;2023-05-23T11:09:13;18.20;99.90
12119;DHT22;6123;48.864;9.200;2023-05-23T11:14:16;17.90;99.90
12119;DHT22;6123;48.864;9.200;2023-05-23T11:16:43;18.20;99.90
12119;DHT22;6123;48.864;9.200;2023-05-23T11:24:47;18.80;99.90
12119;DHT22;6123;48.864;9.200;2023-05-23T11:27:15;19.50;99.90
12119;DHT22;6123;48.864;9.200;2023-05-23T11:29:41;20.20;99.90
12119;DHT22;6123;48.864;9.200;2023-05-23T11:32:11;19.90;99.90
12119;DHT22;6123;48.864;9.200;2023-05-23T11:34:38;19.50;99.90
12119;DHT22;6123;48.864;9.200;2023-05-23T11:37:03;18.50;99.90
12119;DHT22;6123;48.864;9.200;2023-05-23T11:39:29;18.50;99.90
12119;DHT22;6123;48.864;9.200;2023-05-23T11:42:01;18.60;99.90
12119;DHT22;6123;48.864;9.200;2023-05-23T11:44:27;18.20;99.90
12119;DHT22;6123;48.864;9.200;2023-05-23T11:47:04;18.10;99.90
12119;DHT22;6123;48.864;9.200;2023-05-23T11:49:32;18.30;99.90
12119;DHT22;6123;48.864;9.200;2023-05-23T11:51:58;18.60;99.90
12119;DHT22;6123;48.864;9.200;2023-05-23T11:54:25;18.90;99.90
12119;DHT22;6123;48.864;9.200;2023-05-23T11:56:51;18.80;99.90
12119;DHT22;6123;48.864;9.200;2023-05-23T11:59:17;18.80;99.90
12119;DHT22;6123;48.864;9.200;2023-05-23T12:01:43;19.30;99.90
12119;DHT22;6123;48.864;9.200;2023-05-23T12:04:09;19.70;99.90
12119;DHT22;6123;48.864;9.200;2023-05-23T12:06:41;19.10;99.90
12119;DHT22;6123;48.864;9.200;2023-05-23T12:09:09;18.90;99.90
12119;DHT22;6123;48.864;9.200;2023-05-23T12:11:35;19.50;99.90
12119;DHT22;6123;48.864;9.200;2023-05-23T12:14:01;20.00;99.90
12119;DHT22;6123;48.864;9.200;2023-05-23T12:16:31;20.80;99.90
12119;DHT22;6123;48.864;9.200;2023-05-23T12:18:58;20.60;99.90
12119;DHT22;6123;48.864;9.200;2023-05-23T12:21:39;20.70;99.90
12119;DHT22;6123;48.864;9.200;2023-05-23T12:24:19;20.40;99.90
12119;DHT22;6123;48.864;9.200;2023-05-23T12:26:50;20.20;99.90
12119;DHT22;6123;48.864;9.200;2023-05-23T12:29:21;19.20;99.90
12119;DHT22;6123;48.864;9.200;2023-05-23T12:31:50;18.90;99.90
12119;DHT22;6123;48.864;9.200;2023-05-23T12:34:16;19.40;99.90
12119;DHT22;6123;48.864;9.200;2023-05-23T12:36:41;19.30;99.90
12119;DHT22;6123;48.864;9.200;2023-05-23T12:39:08;19.30;99.90
12119;DHT22;6123;48.864;9.200;2023-05-23T12:41:34;18.90;99.90
12119;DHT22;6123;48.864;9.200;2023-05-23T12:44:01;19.10;99.90
12119;DHT22;6123;48.864;9.200;2023-05-23T12:46:27;19.60;99.90
12119;DHT22;6123;48.864;9.200;2023-05-23T12:48:53;19.30;99.90
12119;DHT22;6123;48.864;9.200;2023-05-23T12:51:20;19.50;99.90
12119;DHT22;6123;48.864;9.200;2023-05-23T12:53:46;20.10;99.90
12119;DHT22;6123;48.864;9.200;2023-05-23T12:56:11;19.90;99.90
12119;DHT22;6123;48.864;9.200;2023-05-23T12:58:37;20.60;99.90
12119;DHT22;6123;48.864;9.200;2023-05-23T13:01:02;20.20;99.90
12119;DHT22;6123;48.864;9.200;2023-05-23T13:03:28;19.80;99.90
12119;DHT22;6123;48.864;9.200;2023-05-23T13:05:57;19.90;99.90
12119;DHT22;6123;48.864;9.200;2023-05-23T13:08:23;19.60;99.90
12119;DHT22;6123;48.864;9.200;2023-05-23T13:10:49;19.50;99.90
12119;DHT22;6123;48.864;9.200;2023-05-23T13:13:15;19.10;99.90
12119;DHT22;6123;48.864;9.200;2023-05-23T13:15:41;19.30;99.90
12119;DHT22;6123;48.864;9.200;2023-05-23T13:18:06;18.70;99.90
12119;DHT22;6123;48.864;9.200;2023-05-23T13:20:32;19.10;99.90
12119;DHT22;6123;48.864;9.200;2023-05-23T13:22:58;19.30;99.90
12119;DHT22;6123;48.864;9.200;2023-05-23T13:25:25;18.90;99.90
12119;DHT22;6123;48.864;9.200;2023-05-23T13:27:51;18.80;99.90
12119;DHT22;6123;48.864;9.200;2023-05-23T13:30:21;18.90;99.90
12119;DHT22;6123;48.864;9.200;2023-05-23T13:32:47;18.60;99.90
12119;DHT22;6123;48.864;9.200;2023-05-23T13:35:12;18.80;99.90
12119;DHT22;6123;48.864;9.200;2023-05-23T13:37:38;18.90;99.90
12119;DHT22;6123;48.864;9.200;2023-05-23T13:40:04;19.50;99.90
12119;DHT22;6123;48.864;9.200;2023-05-23T13:42:30;19.40;99.90
12119;DHT22;6123;48.864;9.200;2023-05-23T13:44:56;19.20;99.90
12119;DHT22;6123;48.864;9.200;2023-05-23T13:47:21;19.40;99.90
12119;DHT22;6123;48.864;9.200;2023-05-23T13:49:47;19.60;99.90
12119;DHT22;6123;48.864;9.200;2023-05-23T13:52:13;19.40;99.90
12119;DHT22;6123;48.864;9.200;2023-05-23T13:54:38;19.40;99.90
12119;DHT22;6123;48.864;9.200;2023-05-23T13:57:04;18.90;99.90
12119;DHT22;6123;48.864;9.200;2023-05-23T13:59:31;19.00;99.90
12119;DHT22;6123;48.864;9.200;2023-05-23T14:01:56;19.10;99.90
12119;DHT22;6123;48.864;9.200;2023-05-23T14:04:22;19.30;99.90
12119;DHT22;6123;48.864;9.200;2023-05-23T14:06:48;19.80;99.90
12119;DHT22;6123;48.864;9.200;2023-05-23T14:09:14;20.60;99.90
12119;DHT22;6123;48.864;9.200;2023-05-23T14:11:40;20.50;99.90
12119;DHT22;6123;48.864;9.200;2023-05-23T14:14:05;20.20;99.90
12119;DHT22;6123;48.864;9.200;2023-05-23T14:16:31;19.90;99.90
12119;DHT22;6123;48.864;9.200;2023-05-23T14:18:56;20.00;99.90
12119;DHT22;6123;48.864;9.200;2023-05-23T14:21:22;20.10;99.90
12119;DHT22;6123;48.864;9.200;2023-05-23T14:23:48;20.30;99.90
12119;DHT22;6123;48.864;9.200;2023-05-23T14:26:13;20.10;99.90
12119;DHT22;6123;48.864;9.200;2023-05-23T14:28:39;20.70;99.90
12119;DHT22;6123;48.864;9.200;2023-05-23T14:31:05;20.50;99.90
12119;DHT22;6123;48.864;9.200;2023-05-23T14:33:30;21.10;99.90
12119;DHT22;6123;48.864;9.200;2023-05-23T14:35:56;21.30;99.90
12119;DHT22;6123;48.864;9.200;2023-05-23T14:38:22;20.70;99.90
12119;DHT22;6123;48.864;9.200;2023-05-23T14:40:47;20.30;99.90
12119;DHT22;6123;48.864;9.200;2023-05-23T14:43:14;20.60;99.90
12119;DHT22;6123;48.864;9.200;2023-05-23T14:45:40;21.00;99.90
12119;DHT22;6123;48.864;9.200;2023-05-23T14:48:06;20.00;99.90
12119;DHT22;6123;48.864;9.200;2023-05-23T14:50:32;20.90;99.90
12119;DHT22;6123;48.864;9.200;2023-05-23T14:52:57;21.00;99.90
12119;DHT22;6123;48.864;9.200;2023-05-23T14:55:24;20.30;99.90
12119;DHT22;6123;48.864;9.200;2023-05-23T14:57:50;20.80;99.90
12119;DHT22;6123;48.864;9.200;2023-05-23T15:00:16;20.50;99.90
12119;DHT22;6123;48.864;9.200;2023-05-23T15:02:41;20.30;99.90
12119;DHT22;6123;48.864;9.200;2023-05-23T15:05:07;20.50;99.90
12119;DHT22;6123;48.864;9.200;2023-05-23T15:07:33;20.30;99.90
12119;DHT22;6123;48.864;9.200;2023-05-23T15:09:59;20.40;99.90
12119;DHT22;6123;48.864;9.200;2023-05-23T15:12:27;20.20;99.90
12119;DHT22;6123;48.864;9.200;2023-05-23T15:14:52;20.20;99.90
12119;DHT22;6123;48.864;9.200;2023-05-23T15:17:18;20.70;99.90
12119;DHT22;6123;48.864;9.200;2023-05-23T15:19:45;21.20;99.90
12119;DHT22;6123;48.864;9.200;2023-05-23T15:22:11;20.30;99.90
12119;DHT22;6123;48.864;9.200;2023-05-23T15:24:37;20.70;99.90
12119;DHT22;6123;48.864;9.200;2023-05-23T15:27:02;20.60;99.90
12119;DHT22;6123;48.864;9.200;2023-05-23T15:29:28;21.40;99.90
12119;DHT22;6123;48.864;9.200;2023-05-23T15:31:54;20.70;99.90
12119;DHT22;6123;48.864;9.200;2023-05-23T15:34:19;21.60;99.90
12119;DHT22;6123;48.864;9.200;2023-05-23T15:36:45;20.70;99.90
12119;DHT22;6123;48.864;9.200;2023-05-23T15:39:11;21.30;99.90
12119;DHT22;6123;48.864;9.200;2023-05-23T15:41:37;21.40;99.90
12119;DHT22;6123;48.864;9.200;2023-05-23T15:44:03;21.80;99.90
12119;DHT22;6123;48.864;9.200;2023-05-23T15:46:29;21.70;99.90
12119;DHT22;6123;48.864;9.200;2023-05-23T15:48:54;21.60;99.90
12119;DHT22;6123;48.864;9.200;2023-05-23T15:51:24;21.70;99.90
12119;DHT22;6123;48.864;9.200;2023-05-23T15:53:50;21.40;99.90
12119;DHT22;6123;48.864;9.200;2023-05-23T15:56:15;21.40;99.90
12119;DHT22;6123;48.864;9.200;2023-05-23T15:58:41;21.60;99.90
12119;DHT22;6123;48.864;9.200;2023-05-23T16:01:07;22.10;99.90
12119;DHT22;6123;48.864;9.200;2023-05-23T16:03:33;22.00;99.90